sensor_id;sensor_type;location;lat;lon;timestamp;P1;durP1;ratioP1;P2;durP2;ratioP2
840;SDS011;406;48.566;13.450;2023-08-06T00:00:25;5.80;;;5.10;;
840;SDS011;406;48.566;13.450;2023-08-06T00:02:52;5.60;;;4.97;;
840;SDS011;406;48.566;13.450;2023-08-06T00:05:18;4.90;;;4.50;;
840;SDS011;406;48.566;13.450;2023-08-06T00:07:47;6.27;;;5.47;;
840;SDS011;406;48.566;13.450;2023-08-06T00:10:14;7.93;;;5.00;;
840;SDS011;406;48.566;13.450;2023-08-06T00:12:41;5.53;;;4.97;;
840;SDS011;406;48.566;13.450;2023-08-06T00:15:07;5.47;;;4.97;;
840;SDS011;406;48.566;13.450;2023-08-06T00:17:34;6.37;;;5.77;;
840;SDS011;406;48.566;13.450;2023-08-06T00:20:01;8.93;;;5.20;;
840;SDS011;406;48.566;13.450;2023-08-06T00:22:32;5.80;;;5.30;;
840;SDS011;406;48.566;13.450;2023-08-06T00:25:00;7.03;;;5.50;;
840;SDS011;406;48.566;13.450;2023-08-06T00:27:26;6.70;;;6.10;;
840;SDS011;406;48.566;13.450;2023-08-06T00:29:53;6.23;;;5.63;;
840;SDS011;406;48.566;13.450;2023-08-06T00:32:21;6.37;;;5.77;;
840;SDS011;406;48.566;13.450;2023-08-06T00:34:48;5.50;;;5.00;;
840;SDS011;406;48.566;13.450;2023-08-06T00:37:17;5.63;;;5.13;;
840;SDS011;406;48.566;13.450;2023-08-06T00:39:44;5.57;;;4.93;;
840;SDS011;406;48.566;13.450;2023-08-06T00:42:11;11.50;;;5.67;;
840;SDS011;406;48.566;13.450;2023-08-06T00:44:38;6.30;;;5.70;;
840;SDS011;406;48.566;13.450;2023-08-06T00:47:07;6.53;;;5.50;;
840;SDS011;406;48.566;13.450;2023-08-06T00:49:37;6.70;;;5.30;;
840;SDS011;406;48.566;13.450;2023-08-06T00:52:05;6.17;;;5.53;;
840;SDS011;406;48.566;13.450;2023-08-06T00:54:31;6.73;;;6.07;;
840;SDS011;406;48.566;13.450;2023-08-06T00:57:00;7.97;;;6.50;;
840;SDS011;406;48.566;13.450;2023-08-06T00:59:28;7.90;;;6.00;;
840;SDS011;406;48.566;13.450;2023-08-06T01:01:55;6.90;;;6.10;;
840;SDS011;406;48.566;13.450;2023-08-06T01:04:22;7.40;;;5.77;;
840;SDS011;406;48.566;13.450;2023-08-06T01:06:56;6.80;;;6.10;;
840;SDS011;406;48.566;13.450;2023-08-06T01:09:30;7.37;;;6.43;;
840;SDS011;406;48.566;13.450;2023-08-06T01:12:24;6.67;;;6.00;;
840;SDS011;406;48.566;13.450;2023-08-06T01:14:57;6.80;;;6.20;;
840;SDS011;406;48.566;13.450;2023-08-06T01:17:27;6.90;;;5.70;;
840;SDS011;406;48.566;13.450;2023-08-06T01:19:54;6.73;;;6.13;;
840;SDS011;406;48.566;13.450;2023-08-06T01:22:21;7.43;;;6.80;;
840;SDS011;406;48.566;13.450;2023-08-06T01:24:48;7.73;;;6.77;;
840;SDS011;406;48.566;13.450;2023-08-06T01:32:31;8.03;;;7.23;;
840;SDS011;406;48.566;13.450;2023-08-06T01:35:02;8.70;;;7.80;;
840;SDS011;406;48.566;13.450;2023-08-06T01:37:29;9.20;;;8.27;;
840;SDS011;406;48.566;13.450;2023-08-06T01:39:57;9.07;;;7.90;;
840;SDS011;406;48.566;13.450;2023-08-06T01:42:23;8.13;;;7.33;;
840;SDS011;406;48.566;13.450;2023-08-06T01:44:50;9.57;;;8.10;;
840;SDS011;406;48.566;13.450;2023-08-06T01:47:17;9.50;;;8.20;;
840;SDS011;406;48.566;13.450;2023-08-06T01:49:43;10.03;;;9.03;;
840;SDS011;406;48.566;13.450;2023-08-06T01:52:10;10.00;;;7.80;;
840;SDS011;406;48.566;13.450;2023-08-06T01:54:36;13.93;;;11.20;;
840;SDS011;406;48.566;13.450;2023-08-06T01:57:03;8.97;;;7.40;;
840;SDS011;406;48.566;13.450;2023-08-06T01:59:31;9.17;;;7.87;;
840;SDS011;406;48.566;13.450;2023-08-06T02:01:57;11.77;;;9.17;;
840;SDS011;406;48.566;13.450;2023-08-06T02:04:24;12.00;;;8.77;;
840;SDS011;406;48.566;13.450;2023-08-06T02:06:51;11.53;;;9.53;;
840;SDS011;406;48.566;13.450;2023-08-06T02:09:17;8.60;;;7.63;;
840;SDS011;406;48.566;13.450;2023-08-06T02:11:44;9.23;;;8.33;;
840;SDS011;406;48.566;13.450;2023-08-06T02:14:10;9.37;;;8.33;;
840;SDS011;406;48.566;13.450;2023-08-06T02:16:38;12.10;;;9.27;;
840;SDS011;406;48.566;13.450;2023-08-06T02:19:05;11.73;;;8.63;;
840;SDS011;406;48.566;13.450;2023-08-06T02:21:31;10.63;;;8.03;;
840;SDS011;406;48.566;13.450;2023-08-06T02:23:58;11.60;;;8.63;;
840;SDS011;406;48.566;13.450;2023-08-06T02:26:24;9.30;;;8.40;;
840;SDS011;406;48.566;13.450;2023-08-06T02:28:51;14.47;;;8.77;;
840;SDS011;406;48.566;13.450;2023-08-06T02:31:17;9.77;;;8.53;;
840;SDS011;406;48.566;13.450;2023-08-06T02:33:44;10.90;;;9.20;;
840;SDS011;406;48.566;13.450;2023-08-06T02:36:10;9.20;;;8.20;;
840;SDS011;406;48.566;13.450;2023-08-06T02:38:37;13.80;;;9.03;;
840;SDS011;406;48.566;13.450;2023-08-06T02:41:03;12.63;;;7.27;;
840;SDS011;406;48.566;13.450;2023-08-06T02:43:31;18.10;;;9.13;;
840;SDS011;406;48.566;13.450;2023-08-06T02:45:58;7.80;;;6.63;;
840;SDS011;406;48.566;13.450;2023-08-06T02:48:25;7.03;;;6.10;;
840;SDS011;406;48.566;13.450;2023-08-06T02:50:52;7.57;;;5.30;;
840;SDS011;406;48.566;13.450;2023-08-06T02:53:19;4.60;;;4.20;;
840;SDS011;406;48.566;13.450;2023-08-06T02:55:47;5.70;;;5.17;;
840;SDS011;406;48.566;13.450;2023-08-06T02:58:17;4.27;;;3.73;;
840;SDS011;406;48.566;13.450;2023-08-06T03:01:03;6.50;;;5.07;;
840;SDS011;406;48.566;13.450;2023-08-06T03:03:38;4.33;;;3.70;;
840;SDS011;406;48.566;13.450;2023-08-06T03:06:06;4.93;;;4.07;;
840;SDS011;406;48.566;13.450;2023-08-06T03:08:42;4.80;;;4.40;;
840;SDS011;406;48.566;13.450;2023-08-06T03:11:08;5.00;;;4.47;;
840;SDS011;406;48.566;13.450;2023-08-06T03:13:35;5.67;;;5.07;;
840;SDS011;406;48.566;13.450;2023-08-06T03:16:01;9.83;;;4.30;;
840;SDS011;406;48.566;13.450;2023-08-06T03:18:29;6.10;;;4.50;;
840;SDS011;406;48.566;13.450;2023-08-06T03:20:59;4.70;;;4.20;;
840;SDS011;406;48.566;13.450;2023-08-06T03:23:28;4.67;;;4.27;;
840;SDS011;406;48.566;13.450;2023-08-06T03:25:55;4.70;;;4.20;;
840;SDS011;406;48.566;13.450;2023-08-06T03:28:22;6.17;;;4.97;;
840;SDS011;406;48.566;13.450;2023-08-06T03:30:58;5.90;;;5.00;;
840;SDS011;406;48.566;13.450;2023-08-06T03:33:38;5.40;;;4.60;;
840;SDS011;406;48.566;13.450;2023-08-06T03:36:09;4.77;;;4.00;;
840;SDS011;406;48.566;13.450;2023-08-06T03:38:36;5.63;;;5.03;;
840;SDS011;406;48.566;13.450;2023-08-06T03:41:05;8.27;;;5.13;;
840;SDS011;406;48.566;13.450;2023-08-06T03:43:32;6.70;;;5.60;;
840;SDS011;406;48.566;13.450;2023-08-06T03:45:59;6.93;;;5.40;;
840;SDS011;406;48.566;13.450;2023-08-06T03:48:26;6.70;;;5.23;;
840;SDS011;406;48.566;13.450;2023-08-06T03:50:53;6.73;;;5.30;;
840;SDS011;406;48.566;13.450;2023-08-06T03:53:20;5.70;;;4.20;;
840;SDS011;406;48.566;13.450;2023-08-06T03:55:47;6.97;;;4.90;;
840;SDS011;406;48.566;13.450;2023-08-06T03:58:13;5.50;;;5.00;;
840;SDS011;406;48.566;13.450;2023-08-06T04:00:40;6.97;;;4.80;;
840;SDS011;406;48.566;13.450;2023-08-06T04:03:07;4.97;;;4.47;;
840;SDS011;406;48.566;13.450;2023-08-06T04:05:34;5.07;;;4.57;;
840;SDS011;406;48.566;13.450;2023-08-06T04:08:00;6.27;;;5.00;;
840;SDS011;406;48.566;13.450;2023-08-06T04:10:27;7.60;;;4.70;;
840;SDS011;406;48.566;13.450;2023-08-06T04:12:54;6.07;;;5.10;;
840;SDS011;406;48.566;13.450;2023-08-06T04:15:20;5.30;;;4.80;;
840;SDS011;406;48.566;13.450;2023-08-06T04:17:47;6.93;;;4.97;;
840;SDS011;406;48.566;13.450;2023-08-06T04:20:13;7.20;;;5.80;;
840;SDS011;406;48.566;13.450;2023-08-06T04:22:40;6.47;;;5.07;;
840;SDS011;406;48.566;13.450;2023-08-06T04:25:06;5.23;;;4.73;;
840;SDS011;406;48.566;13.450;2023-08-06T04:27:33;5.03;;;4.63;;
840;SDS011;406;48.566;13.450;2023-08-06T04:30:01;6.43;;;5.80;;
840;SDS011;406;48.566;13.450;2023-08-06T04:32:28;5.87;;;4.67;;
840;SDS011;406;48.566;13.450;2023-08-06T04:34:55;5.07;;;4.57;;
840;SDS011;406;48.566;13.450;2023-08-06T04:37:22;4.93;;;4.50;;
840;SDS011;406;48.566;13.450;2023-08-06T04:39:48;10.00;;;4.97;;
840;SDS011;406;48.566;13.450;2023-08-06T04:42:17;6.13;;;4.97;;
840;SDS011;406;48.566;13.450;2023-08-06T04:44:43;6.17;;;5.50;;
840;SDS011;406;48.566;13.450;2023-08-06T04:47:10;6.07;;;5.47;;
840;SDS011;406;48.566;13.450;2023-08-06T04:49:36;7.10;;;6.40;;
840;SDS011;406;48.566;13.450;2023-08-06T04:52:03;6.40;;;5.10;;
840;SDS011;406;48.566;13.450;2023-08-06T04:54:29;5.97;;;5.37;;
840;SDS011;406;48.566;13.450;2023-08-06T04:56:56;6.90;;;6.23;;
840;SDS011;406;48.566;13.450;2023-08-06T04:59:23;6.20;;;5.10;;
840;SDS011;406;48.566;13.450;2023-08-06T05:01:49;7.13;;;5.57;;
840;SDS011;406;48.566;13.450;2023-08-06T05:04:16;6.00;;;4.73;;
840;SDS011;406;48.566;13.450;2023-08-06T05:06:42;5.03;;;4.60;;
840;SDS011;406;48.566;13.450;2023-08-06T05:09:09;6.40;;;4.93;;
840;SDS011;406;48.566;13.450;2023-08-06T05:11:35;6.20;;;5.60;;
840;SDS011;406;48.566;13.450;2023-08-06T05:14:02;4.63;;;4.20;;
840;SDS011;406;48.566;13.450;2023-08-06T05:16:28;5.50;;;4.90;;
840;SDS011;406;48.566;13.450;2023-08-06T05:18:55;10.50;;;5.50;;
840;SDS011;406;48.566;13.450;2023-08-06T05:21:21;5.50;;;5.00;;
840;SDS011;406;48.566;13.450;2023-08-06T05:23:48;5.53;;;5.00;;
840;SDS011;406;48.566;13.450;2023-08-06T05:26:14;5.17;;;4.63;;
840;SDS011;406;48.566;13.450;2023-08-06T05:28:44;5.80;;;4.70;;
840;SDS011;406;48.566;13.450;2023-08-06T05:31:12;5.60;;;4.17;;
840;SDS011;406;48.566;13.450;2023-08-06T05:33:38;4.83;;;4.33;;
840;SDS011;406;48.566;13.450;2023-08-06T05:36:05;5.40;;;4.90;;
840;SDS011;406;48.566;13.450;2023-08-06T05:38:31;5.00;;;4.50;;
840;SDS011;406;48.566;13.450;2023-08-06T05:40:58;4.97;;;4.43;;
840;SDS011;406;48.566;13.450;2023-08-06T05:43:24;5.10;;;4.60;;
840;SDS011;406;48.566;13.450;2023-08-06T05:45:51;4.50;;;4.10;;
840;SDS011;406;48.566;13.450;2023-08-06T05:48:17;4.87;;;4.07;;
840;SDS011;406;48.566;13.450;2023-08-06T05:50:44;4.73;;;3.73;;
840;SDS011;406;48.566;13.450;2023-08-06T05:53:11;4.40;;;4.00;;
840;SDS011;406;48.566;13.450;2023-08-06T05:55:38;4.47;;;4.07;;
840;SDS011;406;48.566;13.450;2023-08-06T05:58:04;4.30;;;3.90;;
840;SDS011;406;48.566;13.450;2023-08-06T06:00:31;4.23;;;3.83;;
840;SDS011;406;48.566;13.450;2023-08-06T06:02:58;7.50;;;4.17;;
840;SDS011;406;48.566;13.450;2023-08-06T06:05:24;4.77;;;3.60;;
840;SDS011;406;48.566;13.450;2023-08-06T06:07:51;4.83;;;3.87;;
840;SDS011;406;48.566;13.450;2023-08-06T06:10:17;6.23;;;3.83;;
840;SDS011;406;48.566;13.450;2023-08-06T06:12:44;6.87;;;4.10;;
840;SDS011;406;48.566;13.450;2023-08-06T06:15:11;3.83;;;3.50;;
840;SDS011;406;48.566;13.450;2023-08-06T06:17:37;6.07;;;4.20;;
840;SDS011;406;48.566;13.450;2023-08-06T06:20:04;4.90;;;3.63;;
840;SDS011;406;48.566;13.450;2023-08-06T06:22:31;5.17;;;3.70;;
840;SDS011;406;48.566;13.450;2023-08-06T06:24:58;3.63;;;3.30;;
840;SDS011;406;48.566;13.450;2023-08-06T06:27:25;3.60;;;3.30;;
840;SDS011;406;48.566;13.450;2023-08-06T06:29:51;4.10;;;3.30;;
840;SDS011;406;48.566;13.450;2023-08-06T06:32:19;4.13;;;3.00;;
840;SDS011;406;48.566;13.450;2023-08-06T06:34:45;3.43;;;3.13;;
840;SDS011;406;48.566;13.450;2023-08-06T06:37:12;3.00;;;2.70;;
840;SDS011;406;48.566;13.450;2023-08-06T06:39:38;3.30;;;3.00;;
840;SDS011;406;48.566;13.450;2023-08-06T06:42:05;2.70;;;2.50;;
840;SDS011;406;48.566;13.450;2023-08-06T06:44:37;3.33;;;2.43;;
840;SDS011;406;48.566;13.450;2023-08-06T06:47:03;3.77;;;2.90;;
840;SDS011;406;48.566;13.450;2023-08-06T06:49:30;3.40;;;3.10;;
840;SDS011;406;48.566;13.450;2023-08-06T06:51:56;3.10;;;2.80;;
840;SDS011;406;48.566;13.450;2023-08-06T06:54:23;3.40;;;2.30;;
840;SDS011;406;48.566;13.450;2023-08-06T06:56:49;2.80;;;2.57;;
840;SDS011;406;48.566;13.450;2023-08-06T06:59:16;2.93;;;2.63;;
840;SDS011;406;48.566;13.450;2023-08-06T07:01:42;3.67;;;3.37;;
840;SDS011;406;48.566;13.450;2023-08-06T07:04:09;3.70;;;3.00;;
840;SDS011;406;48.566;13.450;2023-08-06T07:06:35;4.23;;;3.77;;
840;SDS011;406;48.566;13.450;2023-08-06T07:09:02;2.80;;;2.53;;
840;SDS011;406;48.566;13.450;2023-08-06T07:11:28;4.27;;;3.20;;
840;SDS011;406;48.566;13.450;2023-08-06T07:13:58;2.83;;;2.50;;
840;SDS011;406;48.566;13.450;2023-08-06T07:16:25;3.17;;;2.50;;
840;SDS011;406;48.566;13.450;2023-08-06T07:18:53;3.13;;;2.83;;
840;SDS011;406;48.566;13.450;2023-08-06T07:21:20;4.00;;;3.00;;
840;SDS011;406;48.566;13.450;2023-08-06T07:23:47;4.40;;;3.00;;
840;SDS011;406;48.566;13.450;2023-08-06T07:26:16;3.60;;;3.00;;
840;SDS011;406;48.566;13.450;2023-08-06T07:28:43;3.33;;;2.87;;
840;SDS011;406;48.566;13.450;2023-08-06T07:31:10;3.83;;;3.20;;
840;SDS011;406;48.566;13.450;2023-08-06T07:33:37;3.30;;;3.00;;
840;SDS011;406;48.566;13.450;2023-08-06T07:36:07;2.93;;;2.60;;
840;SDS011;406;48.566;13.450;2023-08-06T07:38:35;3.20;;;2.77;;
840;SDS011;406;48.566;13.450;2023-08-06T07:41:02;2.63;;;2.43;;
840;SDS011;406;48.566;13.450;2023-08-06T07:43:28;5.13;;;2.70;;
840;SDS011;406;48.566;13.450;2023-08-06T07:45:57;3.50;;;3.20;;
840;SDS011;406;48.566;13.450;2023-08-06T07:48:27;3.63;;;3.30;;
840;SDS011;406;48.566;13.450;2023-08-06T07:50:54;4.10;;;3.13;;
840;SDS011;406;48.566;13.450;2023-08-06T07:53:21;3.40;;;3.07;;
840;SDS011;406;48.566;13.450;2023-08-06T07:55:49;3.87;;;3.20;;
840;SDS011;406;48.566;13.450;2023-08-06T07:58:17;3.23;;;2.93;;
840;SDS011;406;48.566;13.450;2023-08-06T08:00:44;4.27;;;3.87;;
840;SDS011;406;48.566;13.450;2023-08-06T08:03:12;3.93;;;3.30;;
840;SDS011;406;48.566;13.450;2023-08-06T08:05:42;5.30;;;3.03;;
840;SDS011;406;48.566;13.450;2023-08-06T08:08:09;4.17;;;3.77;;
840;SDS011;406;48.566;13.450;2023-08-06T08:10:36;3.93;;;3.03;;
840;SDS011;406;48.566;13.450;2023-08-06T08:13:04;4.40;;;4.00;;
840;SDS011;406;48.566;13.450;2023-08-06T08:15:31;4.13;;;3.47;;
840;SDS011;406;48.566;13.450;2023-08-06T08:17:58;4.30;;;3.20;;
840;SDS011;406;48.566;13.450;2023-08-06T08:20:26;3.60;;;3.30;;
840;SDS011;406;48.566;13.450;2023-08-06T08:22:58;4.20;;;3.43;;
840;SDS011;406;48.566;13.450;2023-08-06T08:25:25;6.63;;;3.60;;
840;SDS011;406;48.566;13.450;2023-08-06T08:27:56;4.57;;;4.13;;
840;SDS011;406;48.566;13.450;2023-08-06T08:30:23;4.40;;;3.00;;
840;SDS011;406;48.566;13.450;2023-08-06T08:32:51;3.60;;;3.30;;
840;SDS011;406;48.566;13.450;2023-08-06T08:35:17;3.30;;;3.00;;
840;SDS011;406;48.566;13.450;2023-08-06T08:37:44;3.20;;;2.90;;
840;SDS011;406;48.566;13.450;2023-08-06T08:40:10;3.50;;;3.20;;
840;SDS011;406;48.566;13.450;2023-08-06T08:42:37;5.33;;;3.40;;
840;SDS011;406;48.566;13.450;2023-08-06T08:45:04;4.33;;;3.20;;
840;SDS011;406;48.566;13.450;2023-08-06T08:47:31;3.13;;;2.90;;
840;SDS011;406;48.566;13.450;2023-08-06T08:49:58;4.30;;;2.90;;
840;SDS011;406;48.566;13.450;2023-08-06T08:52:25;4.03;;;3.03;;
840;SDS011;406;48.566;13.450;2023-08-06T08:54:54;3.63;;;2.40;;
840;SDS011;406;48.566;13.450;2023-08-06T08:57:20;4.07;;;2.97;;
840;SDS011;406;48.566;13.450;2023-08-06T08:59:47;5.00;;;2.60;;
840;SDS011;406;48.566;13.450;2023-08-06T09:02:14;3.47;;;3.10;;
840;SDS011;406;48.566;13.450;2023-08-06T09:04:41;2.80;;;2.50;;
840;SDS011;406;48.566;13.450;2023-08-06T09:07:08;3.03;;;2.70;;
840;SDS011;406;48.566;13.450;2023-08-06T09:09:37;3.40;;;2.80;;
840;SDS011;406;48.566;13.450;2023-08-06T09:12:12;4.30;;;2.63;;
840;SDS011;406;48.566;13.450;2023-08-06T09:14:40;3.00;;;2.70;;
840;SDS011;406;48.566;13.450;2023-08-06T09:17:07;3.10;;;2.30;;
840;SDS011;406;48.566;13.450;2023-08-06T09:19:34;2.53;;;2.30;;
840;SDS011;406;48.566;13.450;2023-08-06T09:22:00;3.30;;;2.00;;
840;SDS011;406;48.566;13.450;2023-08-06T09:24:27;2.33;;;2.13;;
840;SDS011;406;48.566;13.450;2023-08-06T09:26:54;3.13;;;2.10;;
840;SDS011;406;48.566;13.450;2023-08-06T09:29:20;3.20;;;2.20;;
840;SDS011;406;48.566;13.450;2023-08-06T09:31:48;2.10;;;1.90;;
840;SDS011;406;48.566;13.450;2023-08-06T09:34:16;2.53;;;2.00;;
840;SDS011;406;48.566;13.450;2023-08-06T09:36:43;3.20;;;2.07;;
840;SDS011;406;48.566;13.450;2023-08-06T09:39:13;2.40;;;1.93;;
840;SDS011;406;48.566;13.450;2023-08-06T09:41:41;2.00;;;1.80;;
840;SDS011;406;48.566;13.450;2023-08-06T09:44:15;4.23;;;1.73;;
840;SDS011;406;48.566;13.450;2023-08-06T09:49:18;2.13;;;1.50;;
840;SDS011;406;48.566;13.450;2023-08-06T09:51:48;2.27;;;1.87;;
840;SDS011;406;48.566;13.450;2023-08-06T09:54:18;1.80;;;1.30;;
840;SDS011;406;48.566;13.450;2023-08-06T09:56:53;1.63;;;1.40;;
840;SDS011;406;48.566;13.450;2023-08-06T09:59:21;2.87;;;1.63;;
840;SDS011;406;48.566;13.450;2023-08-06T10:01:49;1.80;;;1.50;;
840;SDS011;406;48.566;13.450;2023-08-06T10:04:16;2.30;;;1.50;;
840;SDS011;406;48.566;13.450;2023-08-06T10:06:49;2.50;;;1.33;;
840;SDS011;406;48.566;13.450;2023-08-06T10:09:16;8.17;;;2.90;;
840;SDS011;406;48.566;13.450;2023-08-06T10:11:44;2.57;;;1.70;;
840;SDS011;406;48.566;13.450;2023-08-06T10:14:16;2.40;;;1.70;;
840;SDS011;406;48.566;13.450;2023-08-06T10:16:46;4.27;;;2.30;;
840;SDS011;406;48.566;13.450;2023-08-06T10:19:13;2.23;;;2.03;;
840;SDS011;406;48.566;13.450;2023-08-06T10:21:42;2.93;;;2.07;;
840;SDS011;406;48.566;13.450;2023-08-06T10:25:08;3.57;;;2.20;;
840;SDS011;406;48.566;13.450;2023-08-06T10:27:31;2.70;;;1.57;;
840;SDS011;406;48.566;13.450;2023-08-06T10:33:11;2.17;;;1.80;;
840;SDS011;406;48.566;13.450;2023-08-06T10:35:41;3.93;;;1.70;;
840;SDS011;406;48.566;13.450;2023-08-06T10:38:15;1.97;;;1.40;;
840;SDS011;406;48.566;13.450;2023-08-06T10:40:47;1.63;;;1.20;;
840;SDS011;406;48.566;13.450;2023-08-06T10:43:24;2.30;;;1.10;;
840;SDS011;406;48.566;13.450;2023-08-06T10:46:02;1.80;;;1.30;;
840;SDS011;406;48.566;13.450;2023-08-06T10:51:00;2.23;;;1.77;;
840;SDS011;406;48.566;13.450;2023-08-06T10:53:28;2.43;;;1.30;;
840;SDS011;406;48.566;13.450;2023-08-06T10:55:59;2.60;;;1.23;;
840;SDS011;406;48.566;13.450;2023-08-06T10:58:31;4.80;;;1.77;;
840;SDS011;406;48.566;13.450;2023-08-06T11:00:58;3.20;;;1.00;;
840;SDS011;406;48.566;13.450;2023-08-06T11:03:26;1.40;;;0.80;;
840;SDS011;406;48.566;13.450;2023-08-06T11:05:53;2.17;;;1.80;;
840;SDS011;406;48.566;13.450;2023-08-06T11:08:26;1.73;;;1.47;;
840;SDS011;406;48.566;13.450;2023-08-06T11:10:53;1.50;;;0.73;;
840;SDS011;406;48.566;13.450;2023-08-06T11:13:29;1.50;;;1.20;;
840;SDS011;406;48.566;13.450;2023-08-06T11:15:57;1.20;;;0.73;;
840;SDS011;406;48.566;13.450;2023-08-06T11:18:24;2.50;;;0.90;;
840;SDS011;406;48.566;13.450;2023-08-06T11:20:51;1.40;;;0.90;;
840;SDS011;406;48.566;13.450;2023-08-06T11:23:17;1.63;;;0.90;;
840;SDS011;406;48.566;13.450;2023-08-06T11:25:44;1.10;;;0.77;;
840;SDS011;406;48.566;13.450;2023-08-06T11:28:11;2.37;;;0.60;;
840;SDS011;406;48.566;13.450;2023-08-06T11:30:38;3.50;;;0.90;;
840;SDS011;406;48.566;13.450;2023-08-06T11:33:06;1.30;;;0.63;;
840;SDS011;406;48.566;13.450;2023-08-06T11:35:34;3.17;;;1.10;;
840;SDS011;406;48.566;13.450;2023-08-06T11:38:01;1.20;;;0.70;;
840;SDS011;406;48.566;13.450;2023-08-06T11:40:28;1.20;;;0.60;;
840;SDS011;406;48.566;13.450;2023-08-06T11:42:54;3.37;;;0.90;;
840;SDS011;406;48.566;13.450;2023-08-06T11:45:22;1.30;;;0.60;;
840;SDS011;406;48.566;13.450;2023-08-06T11:47:50;2.60;;;1.00;;
840;SDS011;406;48.566;13.450;2023-08-06T11:50:25;0.87;;;0.60;;
840;SDS011;406;48.566;13.450;2023-08-06T11:52:57;1.23;;;0.97;;
840;SDS011;406;48.566;13.450;2023-08-06T11:55:27;1.60;;;0.90;;
840;SDS011;406;48.566;13.450;2023-08-06T11:57:54;1.10;;;0.60;;
840;SDS011;406;48.566;13.450;2023-08-06T12:00:22;1.63;;;0.60;;
840;SDS011;406;48.566;13.450;2023-08-06T12:02:50;1.30;;;0.90;;
840;SDS011;406;48.566;13.450;2023-08-06T12:05:19;1.30;;;0.73;;
840;SDS011;406;48.566;13.450;2023-08-06T12:07:54;1.80;;;0.70;;
840;SDS011;406;48.566;13.450;2023-08-06T12:10:22;1.20;;;0.80;;
840;SDS011;406;48.566;13.450;2023-08-06T12:12:50;2.70;;;0.60;;
840;SDS011;406;48.566;13.450;2023-08-06T12:15:17;1.10;;;0.60;;
840;SDS011;406;48.566;13.450;2023-08-06T12:17:44;1.93;;;0.40;;
840;SDS011;406;48.566;13.450;2023-08-06T12:20:10;1.73;;;0.57;;
840;SDS011;406;48.566;13.450;2023-08-06T12:22:37;1.40;;;0.50;;
840;SDS011;406;48.566;13.450;2023-08-06T12:25:06;1.20;;;0.73;;
840;SDS011;406;48.566;13.450;2023-08-06T12:27:39;1.10;;;0.40;;
840;SDS011;406;48.566;13.450;2023-08-06T12:30:07;1.17;;;0.60;;
840;SDS011;406;48.566;13.450;2023-08-06T12:32:34;0.80;;;0.30;;
840;SDS011;406;48.566;13.450;2023-08-06T12:35:01;1.37;;;0.40;;
840;SDS011;406;48.566;13.450;2023-08-06T12:37:28;2.03;;;0.60;;
840;SDS011;406;48.566;13.450;2023-08-06T12:39:55;0.70;;;0.30;;
840;SDS011;406;48.566;13.450;2023-08-06T12:42:21;0.73;;;0.40;;
840;SDS011;406;48.566;13.450;2023-08-06T12:44:48;2.50;;;0.33;;
840;SDS011;406;48.566;13.450;2023-08-06T12:47:15;1.00;;;0.40;;
840;SDS011;406;48.566;13.450;2023-08-06T12:49:42;0.93;;;0.40;;
840;SDS011;406;48.566;13.450;2023-08-06T12:52:09;0.80;;;0.40;;
840;SDS011;406;48.566;13.450;2023-08-06T12:54:35;1.60;;;0.40;;
840;SDS011;406;48.566;13.450;2023-08-06T12:57:05;0.80;;;0.30;;
840;SDS011;406;48.566;13.450;2023-08-06T12:59:31;0.90;;;0.30;;
840;SDS011;406;48.566;13.450;2023-08-06T13:02:03;1.47;;;0.30;;
840;SDS011;406;48.566;13.450;2023-08-06T13:04:30;1.33;;;0.30;;
840;SDS011;406;48.566;13.450;2023-08-06T13:06:57;1.80;;;0.30;;
840;SDS011;406;48.566;13.450;2023-08-06T13:09:23;0.93;;;0.30;;
840;SDS011;406;48.566;13.450;2023-08-06T13:11:51;1.07;;;0.70;;
840;SDS011;406;48.566;13.450;2023-08-06T13:14:18;1.07;;;0.50;;
840;SDS011;406;48.566;13.450;2023-08-06T13:16:44;0.60;;;0.40;;
840;SDS011;406;48.566;13.450;2023-08-06T13:19:11;1.00;;;0.30;;
840;SDS011;406;48.566;13.450;2023-08-06T13:24:06;0.60;;;0.30;;
840;SDS011;406;48.566;13.450;2023-08-06T13:26:33;0.83;;;0.40;;
840;SDS011;406;48.566;13.450;2023-08-06T13:29:00;1.17;;;0.40;;
840;SDS011;406;48.566;13.450;2023-08-06T13:31:27;0.90;;;0.30;;
840;SDS011;406;48.566;13.450;2023-08-06T13:33:54;2.40;;;0.43;;
840;SDS011;406;48.566;13.450;2023-08-06T13:36:22;0.77;;;0.33;;
840;SDS011;406;48.566;13.450;2023-08-06T13:38:49;0.83;;;0.37;;
840;SDS011;406;48.566;13.450;2023-08-06T13:41:16;0.70;;;0.30;;
840;SDS011;406;48.566;13.450;2023-08-06T13:43:42;1.33;;;0.50;;
840;SDS011;406;48.566;13.450;2023-08-06T13:46:10;0.90;;;0.37;;
840;SDS011;406;48.566;13.450;2023-08-06T13:48:42;0.60;;;0.23;;
840;SDS011;406;48.566;13.450;2023-08-06T13:51:09;1.00;;;0.23;;
840;SDS011;406;48.566;13.450;2023-08-06T13:53:36;1.47;;;0.40;;
840;SDS011;406;48.566;13.450;2023-08-06T13:56:04;1.20;;;0.27;;
840;SDS011;406;48.566;13.450;2023-08-06T13:58:32;0.70;;;0.30;;
840;SDS011;406;48.566;13.450;2023-08-06T14:00:58;0.90;;;0.40;;
840;SDS011;406;48.566;13.450;2023-08-06T14:03:25;1.70;;;0.50;;
840;SDS011;406;48.566;13.450;2023-08-06T14:05:52;1.60;;;0.73;;
840;SDS011;406;48.566;13.450;2023-08-06T14:08:21;1.63;;;0.30;;
840;SDS011;406;48.566;13.450;2023-08-06T14:10:51;1.00;;;0.50;;
840;SDS011;406;48.566;13.450;2023-08-06T14:13:18;0.90;;;0.53;;
840;SDS011;406;48.566;13.450;2023-08-06T14:15:45;0.70;;;0.30;;
840;SDS011;406;48.566;13.450;2023-08-06T14:18:13;1.27;;;0.43;;
840;SDS011;406;48.566;13.450;2023-08-06T14:20:43;1.53;;;0.33;;
840;SDS011;406;48.566;13.450;2023-08-06T14:23:10;1.47;;;0.57;;
840;SDS011;406;48.566;13.450;2023-08-06T14:25:37;1.47;;;0.40;;
840;SDS011;406;48.566;13.450;2023-08-06T14:28:04;0.80;;;0.30;;
840;SDS011;406;48.566;13.450;2023-08-06T14:30:33;0.80;;;0.40;;
840;SDS011;406;48.566;13.450;2023-08-06T14:33:00;1.27;;;0.37;;
840;SDS011;406;48.566;13.450;2023-08-06T14:35:47;0.73;;;0.33;;
840;SDS011;406;48.566;13.450;2023-08-06T14:38:13;1.47;;;0.40;;
840;SDS011;406;48.566;13.450;2023-08-06T14:40:40;0.80;;;0.40;;
840;SDS011;406;48.566;13.450;2023-08-06T14:43:07;0.87;;;0.33;;
840;SDS011;406;48.566;13.450;2023-08-06T14:45:33;0.90;;;0.40;;
840;SDS011;406;48.566;13.450;2023-08-06T14:48:04;1.00;;;0.40;;
840;SDS011;406;48.566;13.450;2023-08-06T14:50:30;1.00;;;0.40;;
840;SDS011;406;48.566;13.450;2023-08-06T14:52:57;0.80;;;0.30;;
840;SDS011;406;48.566;13.450;2023-08-06T14:55:24;1.83;;;0.33;;
840;SDS011;406;48.566;13.450;2023-08-06T14:57:51;1.10;;;0.67;;
840;SDS011;406;48.566;13.450;2023-08-06T15:00:18;0.80;;;0.37;;
840;SDS011;406;48.566;13.450;2023-08-06T15:02:45;0.80;;;0.20;;
840;SDS011;406;48.566;13.450;2023-08-06T15:05:13;0.60;;;0.20;;
840;SDS011;406;48.566;13.450;2023-08-06T15:07:40;0.97;;;0.30;;
840;SDS011;406;48.566;13.450;2023-08-06T15:10:06;1.03;;;0.20;;
840;SDS011;406;48.566;13.450;2023-08-06T15:12:52;0.70;;;0.20;;
840;SDS011;406;48.566;13.450;2023-08-06T15:15:18;2.03;;;0.40;;
840;SDS011;406;48.566;13.450;2023-08-06T15:17:45;1.90;;;0.50;;
840;SDS011;406;48.566;13.450;2023-08-06T15:20:12;2.00;;;0.40;;
840;SDS011;406;48.566;13.450;2023-08-06T15:22:38;1.00;;;0.50;;
840;SDS011;406;48.566;13.450;2023-08-06T15:25:05;0.97;;;0.20;;
840;SDS011;406;48.566;13.450;2023-08-06T15:27:32;1.93;;;0.50;;
840;SDS011;406;48.566;13.450;2023-08-06T15:30:00;0.90;;;0.30;;
840;SDS011;406;48.566;13.450;2023-08-06T15:32:26;0.60;;;0.30;;
840;SDS011;406;48.566;13.450;2023-08-06T15:34:53;0.60;;;0.30;;
840;SDS011;406;48.566;13.450;2023-08-06T15:37:20;0.83;;;0.33;;
840;SDS011;406;48.566;13.450;2023-08-06T15:39:47;0.80;;;0.30;;
840;SDS011;406;48.566;13.450;2023-08-06T15:42:13;1.20;;;0.40;;
840;SDS011;406;48.566;13.450;2023-08-06T15:44:41;4.23;;;1.10;;
840;SDS011;406;48.566;13.450;2023-08-06T15:47:07;0.60;;;0.20;;
840;SDS011;406;48.566;13.450;2023-08-06T15:49:34;0.80;;;0.20;;